MSC Paola — 9HA2581 — position and weather

sailwx.info

Track history (hours):
 
Tides and Currents Weather Stations Pressure Air Temp Water Temp Dewpoint Dewpoint Depression Visibility Wind Speed Wind Dir Waves Ship Positions

MSC Paola

Last reported at 2015-Jul-20 14:33 UTC. Time now 2015-Jul-30 00:01 UTC.
Position N 26°13' W 079°15'.
Warning: this ship's position is 9 days out of date.

Length 243 m; draft 8.1 m.

Type: Ship (hazmat cat A). MMSI: 248931000.

Date/timePositionNaut miles runAvg speedWind from/ knotsBaromVisibWave heightAir tempDewpointWater temp
2015-Jul-20 14:33N 26°13' W 079°15'1919.4
2015-Jul-20 13:33N 26°09' W 079°36'1919.4
2015-Jul-20 12:33N 26°06' W 079°57'9 9.1
2015-Jul-20 11:33N 26°05' W 080°07'1 0.7
2015-Jul-20 10:31N 26°04' W 080°07'0 0.0
2015-Jul-20 09:28N 26°04' W 080°07'0 0.0
2015-Jul-20 08:33N 26°04' W 080°07'0 0.0
2015-Jul-20 07:30N 26°04' W 080°07'0 0.0
2015-Jul-20 06:31N 26°04' W 080°07'0 0.0
2015-Jul-20 05:33N 26°04' W 080°07'0 0.0
2015-Jul-20 04:32N 26°04' W 080°07'0 0.2
2015-Jul-20 03:32N 26°04' W 080°07'0 0.0
2015-Jul-20 02:34N 26°04' W 080°07'0 0.0
2015-Jul-20 01:34N 26°04' W 080°07'0 0.0
2015-Jul-20 00:33N 26°04' W 080°07'0 0.0
2015-Jul-19 23:33N 26°04' W 080°07'0 0.0
2015-Jul-19 22:34N 26°04' W 080°07'0 0.0
2015-Jul-19 21:34N 26°04' W 080°07'0 0.0
2015-Jul-19 20:34N 26°04' W 080°07'0 0.0
2015-Jul-19 19:34N 26°04' W 080°07'0 0.0
2015-Jul-19 18:34N 26°04' W 080°07'0 0.0
2015-Jul-19 17:33N 26°04' W 080°07'0 0.0
2015-Jul-19 16:33N 26°04' W 080°07'0 0.0
2015-Jul-19 15:34N 26°04' W 080°07'0 0.0
2015-Jul-19 14:34N 26°04' W 080°07'0 0.0
2015-Jul-19 13:34N 26°04' W 080°07'0 0.0
2015-Jul-19 12:34N 26°04' W 080°07'0 0.0
2015-Jul-19 11:34N 26°04' W 080°07'0 0.0
2015-Jul-19 10:34N 26°04' W 080°07'0 0.0
2015-Jul-19 09:34N 26°04' W 080°07'0 0.0
2015-Jul-19 08:34N 26°04' W 080°07'4 4.4
2015-Jul-19 07:34N 26°06' W 080°03'2 1.8
2015-Jul-19 06:32N 26°08' W 080°04'0 0.0
2015-Jul-19 05:32N 26°08' W 080°04'0 0.0
2015-Jul-19 04:31N 26°08' W 080°04'0 0.0
2015-Jul-19 00:31N 26°08' W 080°04'0 0.0
2015-Jul-18 23:26N 26°08' W 080°04'0 0.0
2015-Jul-18 22:32N 26°08' W 080°04'0 0.0
2015-Jul-18 21:32N 26°08' W 080°04'0 0.0
2015-Jul-18 20:32N 26°08' W 080°04'0 0.0
2015-Jul-18 19:32N 26°08' W 080°04'0 0.0
2015-Jul-18 18:31N 26°08' W 080°04'0 0.0
2015-Jul-18 17:27N 26°08' W 080°04'0 0.0
2015-Jul-18 16:31N 26°08' W 080°04'0 0.0
2015-Jul-18 15:33N 26°08' W 080°04'0 0.0
2015-Jul-18 14:31N 26°08' W 080°04'0 0.0
2015-Jul-18 13:27N 26°08' W 080°04'0 0.0
2015-Jul-18 12:33N 26°08' W 080°04'0 0.0
2015-Jul-18 11:31N 26°08' W 080°04'0 0.0
2015-Jul-18 10:27N 26°08' W 080°04'0 0.0
2015-Jul-18 09:29N 26°08' W 080°04'0 0.0
2015-Jul-18 08:32N 26°08' W 080°04'0 0.0
2015-Jul-18 07:30N 26°08' W 080°04'0 0.0
2015-Jul-18 06:30N 26°08' W 080°04'0 0.0
2015-Jul-18 05:27N 26°08' W 080°04'0 0.0
2015-Jul-18 04:31N 26°08' W 080°04'0 0.0
2015-Jul-18 03:32N 26°08' W 080°04'0 0.0
2015-Jul-18 02:31N 26°08' W 080°04'0 0.0
2015-Jul-18 01:29N 26°08' W 080°04'0 0.0
2015-Jul-18 00:31N 26°08' W 080°04'0 0.0
2015-Jul-17 23:29N 26°08' W 080°04'0 0.0
2015-Jul-17 22:32N 26°08' W 080°04'0 0.0
2015-Jul-17 21:29N 26°08' W 080°04'0 0.0
2015-Jul-17 20:33N 26°08' W 080°04'0 0.0
2015-Jul-17 19:29N 26°08' W 080°04'0 0.0
2015-Jul-17 18:31N 26°08' W 080°04'0 0.1
2015-Jul-17 17:31N 26°08' W 080°04'6 5.8
2015-Jul-17 16:33N 26°06' W 079°58'1414.0
2015-Jul-17 15:33N 26°11' W 079°44'1616.4
2015-Jul-17 14:33N 26°17' W 079°27'  
2015-Jul-14 22:26N 33°47' W 076°54'1516.5
2015-Jul-14 21:33N 33°57' W 076°41'1515.4
2015-Jul-14 20:33N 34°07' W 076°27'1615.5
2015-Jul-14 19:33N 34°17' W 076°13'1916.0
2015-Jul-14 18:20N 34°30' W 075°55'1316.6
2015-Jul-14 17:33N 34°39' W 075°44'6214.1
2015-Jul-14 13:09N 35°35' W 075°11'112 4.9
2015-Jul-13 14:08N 37°18' W 076°07'1117.7
2015-Jul-13 13:31N 37°28' W 076°04'1616.6
2015-Jul-13 12:32N 37°43' W 076°11'2118.6
2015-Jul-13 11:25N 38°04' W 076°13'3719.3
2015-Jul-13 09:30N 38°40' W 076°25'1718.4
2015-Jul-13 08:34N 38°57' W 076°23'1212.4
2015-Jul-13 07:33N 39°10' W 076°25'9 8.6
2015-Jul-13 06:33N 39°15' W 076°33'0 0.3
2015-Jul-13 05:31N 39°15' W 076°33'0 0.0
2015-Jul-13 04:31N 39°15' W 076°33'0 0.0
2015-Jul-13 03:30N 39°15' W 076°33'0 0.0
2015-Jul-13 02:32N 39°15' W 076°33'0 0.0
2015-Jul-13 01:32N 39°15' W 076°33'0 0.0
2015-Jul-13 00:31N 39°15' W 076°33'0 0.0
2015-Jul-12 23:09N 39°15' W 076°33'0 0.0
2015-Jul-12 22:28N 39°15' W 076°33'0 0.0
2015-Jul-12 21:17N 39°15' W 076°33'0 0.0
2015-Jul-12 20:29N 39°15' W 076°33'0 0.0
2015-Jul-12 19:30N 39°15' W 076°33'0 0.0
2015-Jul-12 18:33N 39°15' W 076°33'2 1.8
2015-Jul-12 17:33N 39°14' W 076°32'1110.8
2015-Jul-12 16:33N 39°05' W 076°24'3417.0
2015-Jul-12 14:33N 38°31' W 076°25'1919.0
2015-Jul-12 13:33N 38°14' W 076°16'96 6.8
2015-Jul-11 23:32N 38°17' W 074°14'1616.9
2015-Jul-11 22:34N 38°33' W 074°08'1716.6
2015-Jul-11 21:33N 38°49' W 074°02'1616.7
2015-Jul-11 20:34N 39°05' W 073°57'1616.0
2015-Jul-11 19:33N 39°21' W 073°54'1615.9
2015-Jul-11 18:33N 39°37' W 073°53'1615.9
2015-Jul-11 17:34N 39°53' W 073°51'1615.6
2015-Jul-11 16:34N 40°08' W 073°50'1616.5
2015-Jul-11 15:34N 40°25' W 073°48'1514.9
2015-Jul-11 14:33N 40°35' W 074°02'7 7.2
2015-Jul-11 13:34N 40°41' W 074°08'1 0.9
2015-Jul-11 12:28N 40°41' W 074°09'0 0.0
2015-Jul-11 11:31N 40°41' W 074°09'0 0.0
2015-Jul-11 10:27N 40°41' W 074°09'0 0.0
2015-Jul-11 09:32N 40°41' W 074°09'0 0.0
2015-Jul-11 08:31N 40°41' W 074°09'0 0.0
2015-Jul-11 07:28N 40°41' W 074°09'0 0.0
2015-Jul-11 06:29N 40°41' W 074°09'0 0.1
2015-Jul-11 05:33N 40°41' W 074°09'0 0.0
2015-Jul-11 04:30N 40°41' W 074°09'0 0.0
2015-Jul-11 03:31N 40°41' W 074°09'0 0.0
2015-Jul-11 02:27N 40°41' W 074°09'0 0.0
2015-Jul-11 01:30N 40°41' W 074°09'0 0.0
2015-Jul-11 00:26N 40°41' W 074°09'0 0.0
2015-Jul-10 23:33N 40°41' W 074°09'0 0.0
2015-Jul-10 22:32N 40°41' W 074°09'0 0.0
2015-Jul-10 21:30N 40°41' W 074°09'0 0.0
2015-Jul-10 20:33N 40°41' W 074°09'0 0.0
2015-Jul-10 19:31N 40°41' W 074°09'0 0.0
2015-Jul-10 18:30N 40°41' W 074°09'0 0.0
2015-Jul-10 17:32N 40°41' W 074°09'0 0.0
2015-Jul-10 16:30N 40°41' W 074°09'0 0.0
2015-Jul-10 15:32N 40°41' W 074°09'  
Track history (hours):
 
Tides and Currents Weather Stations Pressure Air Temp Water Temp Dewpoint Dewpoint Depression Visibility Wind Speed Wind Dir Waves Ship Positions

MSC Paola

Last reported at 2015-Jul-20 14:33 UTC. Time now 2015-Jul-30 00:01 UTC.
Position N 26°13' W 079°15'.
Warning: this ship's position is 9 days out of date.

Length 243 m; draft 8.1 m.

Type: Ship (hazmat cat A). MMSI: 248931000.

Date/timePositionNaut miles runAvg speedWind from/ knotsBaromVisibWave heightAir tempDewpointWater temp
2015-Jul-20 14:33N 26°13' W 079°15'1919.4
2015-Jul-20 13:33N 26°09' W 079°36'1919.4
2015-Jul-20 12:33N 26°06' W 079°57'9 9.1
2015-Jul-20 11:33N 26°05' W 080°07'1 0.7
2015-Jul-20 10:31N 26°04' W 080°07'0 0.0
2015-Jul-20 09:28N 26°04' W 080°07'0 0.0
2015-Jul-20 08:33N 26°04' W 080°07'0 0.0
2015-Jul-20 07:30N 26°04' W 080°07'0 0.0
2015-Jul-20 06:31N 26°04' W 080°07'0 0.0
2015-Jul-20 05:33N 26°04' W 080°07'0 0.0
2015-Jul-20 04:32N 26°04' W 080°07'0 0.2
2015-Jul-20 03:32N 26°04' W 080°07'0 0.0
2015-Jul-20 02:34N 26°04' W 080°07'0 0.0
2015-Jul-20 01:34N 26°04' W 080°07'0 0.0
2015-Jul-20 00:33N 26°04' W 080°07'0 0.0
2015-Jul-19 23:33N 26°04' W 080°07'0 0.0
2015-Jul-19 22:34N 26°04' W 080°07'0 0.0
2015-Jul-19 21:34N 26°04' W 080°07'0 0.0
2015-Jul-19 20:34N 26°04' W 080°07'0 0.0
2015-Jul-19 19:34N 26°04' W 080°07'0 0.0
2015-Jul-19 18:34N 26°04' W 080°07'0 0.0
2015-Jul-19 17:33N 26°04' W 080°07'0 0.0
2015-Jul-19 16:33N 26°04' W 080°07'0 0.0
2015-Jul-19 15:34N 26°04' W 080°07'0 0.0
2015-Jul-19 14:34N 26°04' W 080°07'0 0.0
2015-Jul-19 13:34N 26°04' W 080°07'0 0.0
2015-Jul-19 12:34N 26°04' W 080°07'0 0.0
2015-Jul-19 11:34N 26°04' W 080°07'0 0.0
2015-Jul-19 10:34N 26°04' W 080°07'0 0.0
2015-Jul-19 09:34N 26°04' W 080°07'0 0.0
2015-Jul-19 08:34N 26°04' W 080°07'4 4.4
2015-Jul-19 07:34N 26°06' W 080°03'2 1.8
2015-Jul-19 06:32N 26°08' W 080°04'0 0.0
2015-Jul-19 05:32N 26°08' W 080°04'0 0.0
2015-Jul-19 04:31N 26°08' W 080°04'0 0.0
2015-Jul-19 00:31N 26°08' W 080°04'0 0.0
2015-Jul-18 23:26N 26°08' W 080°04'0 0.0
2015-Jul-18 22:32N 26°08' W 080°04'0 0.0
2015-Jul-18 21:32N 26°08' W 080°04'0 0.0
2015-Jul-18 20:32N 26°08' W 080°04'0 0.0
2015-Jul-18 19:32N 26°08' W 080°04'0 0.0
2015-Jul-18 18:31N 26°08' W 080°04'0 0.0
2015-Jul-18 17:27N 26°08' W 080°04'0 0.0
2015-Jul-18 16:31N 26°08' W 080°04'0 0.0
2015-Jul-18 15:33N 26°08' W 080°04'0 0.0
2015-Jul-18 14:31N 26°08' W 080°04'0 0.0
2015-Jul-18 13:27N 26°08' W 080°04'0 0.0
2015-Jul-18 12:33N 26°08' W 080°04'0 0.0
2015-Jul-18 11:31N 26°08' W 080°04'0 0.0
2015-Jul-18 10:27N 26°08' W 080°04'0 0.0
2015-Jul-18 09:29N 26°08' W 080°04'0 0.0
2015-Jul-18 08:32N 26°08' W 080°04'0 0.0
2015-Jul-18 07:30N 26°08' W 080°04'0 0.0
2015-Jul-18 06:30N 26°08' W 080°04'0 0.0
2015-Jul-18 05:27N 26°08' W 080°04'0 0.0
2015-Jul-18 04:31N 26°08' W 080°04'0 0.0
2015-Jul-18 03:32N 26°08' W 080°04'0 0.0
2015-Jul-18 02:31N 26°08' W 080°04'0 0.0
2015-Jul-18 01:29N 26°08' W 080°04'0 0.0
2015-Jul-18 00:31N 26°08' W 080°04'0 0.0
2015-Jul-17 23:29N 26°08' W 080°04'0 0.0
2015-Jul-17 22:32N 26°08' W 080°04'0 0.0
2015-Jul-17 21:29N 26°08' W 080°04'0 0.0
2015-Jul-17 20:33N 26°08' W 080°04'0 0.0
2015-Jul-17 19:29N 26°08' W 080°04'0 0.0
2015-Jul-17 18:31N 26°08' W 080°04'0 0.1
2015-Jul-17 17:31N 26°08' W 080°04'6 5.8
2015-Jul-17 16:33N 26°06' W 079°58'1414.0
2015-Jul-17 15:33N 26°11' W 079°44'1616.4
2015-Jul-17 14:33N 26°17' W 079°27'  
2015-Jul-14 22:26N 33°47' W 076°54'1516.5
2015-Jul-14 21:33N 33°57' W 076°41'1515.4
2015-Jul-14 20:33N 34°07' W 076°27'1615.5
2015-Jul-14 19:33N 34°17' W 076°13'1916.0
2015-Jul-14 18:20N 34°30' W 075°55'1316.6
2015-Jul-14 17:33N 34°39' W 075°44'6214.1
2015-Jul-14 13:09N 35°35' W 075°11'112 4.9
2015-Jul-13 14:08N 37°18' W 076°07'1117.7
2015-Jul-13 13:31N 37°28' W 076°04'1616.6
2015-Jul-13 12:32N 37°43' W 076°11'2118.6
2015-Jul-13 11:25N 38°04' W 076°13'3719.3
2015-Jul-13 09:30N 38°40' W 076°25'1718.4
2015-Jul-13 08:34N 38°57' W 076°23'1212.4
2015-Jul-13 07:33N 39°10' W 076°25'9 8.6
2015-Jul-13 06:33N 39°15' W 076°33'0 0.3
2015-Jul-13 05:31N 39°15' W 076°33'0 0.0
2015-Jul-13 04:31N 39°15' W 076°33'0 0.0
2015-Jul-13 03:30N 39°15' W 076°33'0 0.0
2015-Jul-13 02:32N 39°15' W 076°33'0 0.0
2015-Jul-13 01:32N 39°15' W 076°33'0 0.0
2015-Jul-13 00:31N 39°15' W 076°33'0 0.0
2015-Jul-12 23:09N 39°15' W 076°33'0 0.0
2015-Jul-12 22:28N 39°15' W 076°33'0 0.0
2015-Jul-12 21:17N 39°15' W 076°33'0 0.0
2015-Jul-12 20:29N 39°15' W 076°33'0 0.0
2015-Jul-12 19:30N 39°15' W 076°33'0 0.0
2015-Jul-12 18:33N 39°15' W 076°33'2 1.8
2015-Jul-12 17:33N 39°14' W 076°32'1110.8
2015-Jul-12 16:33N 39°05' W 076°24'3417.0
2015-Jul-12 14:33N 38°31' W 076°25'1919.0
2015-Jul-12 13:33N 38°14' W 076°16'96 6.8
2015-Jul-11 23:32N 38°17' W 074°14'1616.9
2015-Jul-11 22:34N 38°33' W 074°08'1716.6
2015-Jul-11 21:33N 38°49' W 074°02'1616.7
2015-Jul-11 20:34N 39°05' W 073°57'1616.0
2015-Jul-11 19:33N 39°21' W 073°54'1615.9
2015-Jul-11 18:33N 39°37' W 073°53'1615.9
2015-Jul-11 17:34N 39°53' W 073°51'1615.6
2015-Jul-11 16:34N 40°08' W 073°50'1616.5
2015-Jul-11 15:34N 40°25' W 073°48'1514.9
2015-Jul-11 14:33N 40°35' W 074°02'7 7.2
2015-Jul-11 13:34N 40°41' W 074°08'1 0.9
2015-Jul-11 12:28N 40°41' W 074°09'0 0.0
2015-Jul-11 11:31N 40°41' W 074°09'0 0.0
2015-Jul-11 10:27N 40°41' W 074°09'0 0.0
2015-Jul-11 09:32N 40°41' W 074°09'0 0.0
2015-Jul-11 08:31N 40°41' W 074°09'0 0.0
2015-Jul-11 07:28N 40°41' W 074°09'0 0.0
2015-Jul-11 06:29N 40°41' W 074°09'0 0.1
2015-Jul-11 05:33N 40°41' W 074°09'0 0.0
2015-Jul-11 04:30N 40°41' W 074°09'0 0.0
2015-Jul-11 03:31N 40°41' W 074°09'0 0.0
2015-Jul-11 02:27N 40°41' W 074°09'0 0.0
2015-Jul-11 01:30N 40°41' W 074°09'0 0.0
2015-Jul-11 00:26N 40°41' W 074°09'0 0.0
2015-Jul-10 23:33N 40°41' W 074°09'0 0.0
2015-Jul-10 22:32N 40°41' W 074°09'0 0.0
2015-Jul-10 21:30N 40°41' W 074°09'0 0.0
2015-Jul-10 20:33N 40°41' W 074°09'0 0.0
2015-Jul-10 19:31N 40°41' W 074°09'0 0.0
2015-Jul-10 18:30N 40°41' W 074°09'0 0.0
2015-Jul-10 17:32N 40°41' W 074°09'0 0.0
2015-Jul-10 16:30N 40°41' W 074°09'0 0.0
2015-Jul-10 15:32N 40°41' W 074°09'  

Dump ship's entire track history